Hundvaag 1 weather for Jul 1990
Month no. 37
Obs.
Da.
Temp. Dew Point Precip. Wind
Speed
Wind gusts Cloud cover Press. Humidity Wind dir. Sunny OPT
01.07.1990 13,8   11,6             1  
02.07.1990 12,2   16,3             1  
03.07.1990 12,3   11,4             1  
04.07.1990 12,1   7,2                
05.07.1990 12,3   2,0                
06.07.1990 12,5   13,8                
07.07.1990 10,6   3,9             1  
08.07.1990 14,3   6,7                
09.07.1990 11,1   8,2                
10.07.1990 11,4   12,1                
11.07.1990 12,0   0,9                
12.07.1990 12,3   14,1             1  
13.07.1990 10,7   3,9             1  
14.07.1990 12,9   1,1             1  
15.07.1990 14,4   0,0             1  
16.07.1990 13,5   0,0             1  
17.07.1990 13,8   0,0                
18.07.1990 13,3   0,0             1  
19.07.1990 13,5   0,5                
20.07.1990 13,9   1,0                
21.07.1990 12,5   0,0                
22.07.1990 11,5   0,0                
23.07.1990 10,1   0,0                
24.07.1990 10,0   0,0                
25.07.1990 11,3   0,0             1  
26.07.1990 15,5   0,0             1  
27.07.1990 15,8   0,0             1  
28.07.1990 15,7   0,0             1  
29.07.1990 15,6   0,0             1  
30.07.1990 15,9   0,0                
31.07.1990 15,7   1,4                
Avrg/Sum 13,0   116,1             15